createdAt,value
2023-02-14T00:00:24.462Z,44.91
2023-02-14T00:02:51.291Z,43.63
2023-02-14T00:05:17.895Z,43.49
2023-02-14T00:07:44.381Z,43.07
2023-02-14T00:10:11.012Z,42.95
2023-02-14T00:12:37.476Z,42.78
2023-02-14T00:15:04.124Z,42.55
2023-02-14T00:17:30.579Z,42.53
2023-02-14T00:19:57.051Z,42.50
2023-02-14T00:22:23.545Z,43.39
2023-02-14T00:24:50.024Z,43.34
2023-02-14T00:27:16.606Z,44.33
2023-02-14T00:29:43.085Z,43.86
2023-02-14T00:32:09.723Z,44.94
2023-02-14T00:34:36.485Z,45.61
2023-02-14T00:37:04.203Z,47.02
2023-02-14T00:39:30.797Z,46.67
2023-02-14T00:41:57.371Z,45.71
2023-02-14T00:44:23.857Z,45.80
2023-02-14T00:46:50.382Z,46.25
2023-02-14T00:49:17.407Z,47.15
2023-02-14T00:51:43.916Z,46.92
2023-02-14T00:54:10.384Z,47.06
2023-02-14T00:56:36.998Z,47.10
2023-02-14T00:59:03.460Z,46.95
2023-02-14T01:01:29.948Z,47.84
2023-02-14T01:03:56.684Z,47.78
2023-02-14T01:06:23.144Z,46.67
2023-02-14T01:08:49.601Z,47.21
2023-02-14T01:11:18.776Z,46.59
2023-02-14T01:13:46.210Z,47.17
2023-02-14T01:16:16.419Z,47.29
2023-02-14T01:18:43.635Z,47.39
2023-02-14T01:21:16.135Z,46.49
2023-02-14T01:23:44.451Z,46.20
2023-02-14T01:26:15.086Z,45.40
2023-02-14T01:28:43.090Z,45.89
2023-02-14T01:31:13.632Z,44.20
2023-02-14T01:33:41.954Z,44.77
2023-02-14T01:36:16.142Z,46.17
2023-02-14T01:38:42.674Z,44.16
2023-02-14T01:41:09.189Z,43.57
2023-02-14T01:43:58.690Z,43.15
2023-02-14T01:46:28.616Z,42.32
2023-02-14T01:49:03.250Z,41.25
2023-02-14T01:51:31.777Z,41.35
2023-02-14T01:54:00.253Z,41.33
2023-02-14T01:56:43.497Z,41.19
2023-02-14T01:59:16.009Z,39.85
2023-02-14T02:01:43.456Z,39.88
2023-02-14T02:04:17.669Z,39.47
2023-02-14T02:06:54.297Z,38.48
2023-02-14T02:09:48.946Z,37.85
2023-02-14T02:12:15.549Z,38.21
2023-02-14T02:14:43.078Z,37.32
2023-02-14T02:17:22.406Z,37.60
2023-02-14T02:19:58.036Z,36.43
2023-02-14T02:22:55.538Z,35.98
2023-02-14T02:25:46.711Z,35.83
2023-02-14T02:28:18.836Z,35.88
2023-02-14T02:31:36.865Z,34.93
2023-02-14T02:34:39.032Z,35.02
2023-02-14T02:37:11.508Z,35.01
2023-02-14T02:39:59.163Z,34.18
2023-02-14T02:43:09.978Z,35.00
2023-02-14T02:46:03.860Z,34.83
2023-02-14T02:49:13.037Z,34.91
2023-02-14T02:51:53.162Z,34.70
2023-02-14T02:54:34.795Z,34.17
2023-02-14T02:57:07.226Z,33.49
2023-02-14T02:59:41.561Z,33.75
2023-02-14T03:02:25.579Z,33.68
2023-02-14T03:04:59.287Z,34.72
2023-02-14T03:07:28.454Z,34.54
2023-02-14T03:09:58.048Z,33.81
2023-02-14T03:12:33.284Z,33.18
2023-02-14T03:15:31.141Z,32.84
2023-02-14T03:18:16.241Z,32.15
2023-02-14T03:20:57.929Z,33.48
2023-02-14T03:23:38.807Z,32.68
2023-02-14T03:26:17.105Z,32.22
2023-02-14T03:29:20.885Z,32.79
2023-02-14T03:32:03.662Z,32.90
2023-02-14T03:34:36.654Z,32.74
2023-02-14T03:37:13.941Z,32.44
2023-02-14T03:39:56.581Z,33.00
2023-02-14T03:42:33.958Z,33.00
2023-02-14T03:45:05.615Z,33.02
2023-02-14T03:47:35.856Z,32.60
2023-02-14T03:50:09.216Z,32.28
2023-02-14T03:52:38.672Z,32.90
2023-02-14T03:55:08.596Z,33.71
2023-02-14T03:57:39.650Z,33.94
2023-02-14T04:00:07.119Z,33.08
2023-02-14T04:02:44.076Z,32.51
2023-02-14T04:05:22.747Z,33.04
2023-02-14T04:07:52.682Z,32.95
2023-02-14T04:10:21.062Z,33.06
2023-02-14T04:13:05.536Z,33.18
2023-02-14T04:15:42.404Z,32.78
2023-02-14T04:18:09.780Z,33.45
2023-02-14T04:20:36.247Z,33.45
2023-02-14T04:23:03.738Z,33.24
2023-02-14T04:25:30.551Z,33.03
2023-02-14T04:27:57.073Z,32.84
2023-02-14T04:30:23.655Z,32.16
2023-02-14T04:32:50.186Z,32.19
2023-02-14T04:35:16.778Z,31.88
2023-02-14T04:37:43.253Z,32.38
2023-02-14T04:40:10.357Z,30.71
2023-02-14T04:42:36.924Z,31.18
2023-02-14T04:45:04.464Z,29.54
2023-02-14T04:47:31.131Z,28.80
2023-02-14T04:49:57.753Z,28.43
2023-02-14T04:52:24.368Z,28.30
2023-02-14T04:54:50.835Z,26.67
2023-02-14T04:57:17.288Z,25.75
2023-02-14T04:59:43.740Z,24.40
2023-02-14T05:02:10.398Z,23.93
2023-02-14T05:04:37.033Z,23.65
2023-02-14T05:07:03.810Z,23.28
2023-02-14T05:09:30.375Z,21.88
2023-02-14T05:11:56.841Z,21.28
2023-02-14T05:14:23.474Z,21.35
2023-02-14T05:16:50.052Z,21.02
2023-02-14T05:19:16.523Z,19.98
2023-02-14T05:21:43.011Z,18.58
2023-02-14T05:24:13.249Z,18.44
2023-02-14T05:26:39.754Z,17.92
2023-02-14T05:29:06.420Z,17.02
2023-02-14T05:31:32.998Z,17.02
2023-02-14T05:33:59.836Z,16.20
2023-02-14T05:36:26.447Z,16.38
2023-02-14T05:38:52.930Z,16.56
2023-02-14T05:41:19.415Z,16.73
2023-02-14T05:43:45.887Z,16.54
2023-02-14T05:46:12.437Z,16.37
2023-02-14T05:48:38.958Z,16.95
2023-02-14T05:51:08.639Z,17.38
2023-02-14T05:53:35.353Z,17.25
2023-02-14T05:56:02.257Z,17.15
2023-02-14T05:58:28.795Z,18.11
2023-02-14T06:00:57.380Z,17.57
2023-02-14T06:03:24.299Z,17.49
2023-02-14T06:05:50.873Z,17.63
2023-02-14T06:08:17.349Z,17.93
2023-02-14T06:10:43.981Z,17.87
2023-02-14T06:13:10.482Z,17.68
2023-02-14T06:15:38.053Z,17.43
2023-02-14T06:18:05.713Z,17.40
2023-02-14T06:20:32.548Z,18.24
2023-02-14T06:22:59.245Z,19.87
2023-02-14T06:25:26.302Z,22.02
2023-02-14T06:27:56.635Z,21.97
2023-02-14T06:30:23.202Z,25.69
2023-02-14T06:32:52.711Z,23.94
2023-02-14T06:35:19.556Z,25.28
2023-02-14T06:37:46.403Z,27.66
2023-02-14T06:40:14.061Z,27.62
2023-02-14T06:42:40.655Z,28.49
2023-02-14T06:45:07.785Z,28.71
2023-02-14T06:47:35.231Z,25.39
2023-02-14T06:50:02.607Z,21.75
2023-02-14T06:52:29.071Z,21.82
2023-02-14T06:54:55.576Z,20.12
2023-02-14T06:57:22.090Z,17.47
2023-02-14T06:59:48.584Z,16.29
2023-02-14T07:02:15.163Z,15.95
2023-02-14T07:04:41.747Z,15.02
2023-02-14T07:07:08.247Z,14.50
2023-02-14T07:09:34.736Z,14.61
2023-02-14T07:12:01.252Z,14.19
2023-02-14T07:14:27.710Z,13.73
2023-02-14T07:16:54.168Z,12.98
2023-02-14T07:19:20.688Z,13.62
2023-02-14T07:21:47.233Z,15.19
2023-02-14T07:24:13.769Z,16.36
2023-02-14T07:26:40.259Z,16.66
2023-02-14T07:29:06.756Z,17.24
2023-02-14T07:31:33.353Z,17.67
2023-02-14T07:33:59.890Z,17.15
2023-02-14T07:36:26.641Z,16.00
2023-02-14T07:38:53.148Z,15.82
2023-02-14T07:41:19.648Z,16.01
2023-02-14T07:43:46.172Z,17.51
2023-02-14T07:46:12.855Z,17.72
2023-02-14T07:48:39.348Z,17.40
2023-02-14T07:51:05.848Z,16.71
2023-02-14T07:53:32.368Z,16.15
2023-02-14T07:55:58.929Z,19.11
2023-02-14T07:58:25.440Z,20.83
2023-02-14T08:00:52.012Z,23.95
2023-02-14T08:03:18.619Z,28.85
2023-02-14T08:05:48.098Z,31.23
2023-02-14T08:08:14.612Z,30.90
2023-02-14T08:10:41.152Z,32.13
2023-02-14T08:13:07.756Z,34.19
2023-02-14T08:15:35.364Z,36.19
2023-02-14T08:18:01.853Z,36.30
2023-02-14T08:20:28.318Z,39.08
2023-02-14T08:22:55.803Z,46.35
2023-02-14T08:25:22.341Z,50.70
2023-02-14T08:27:48.840Z,55.21
2023-02-14T08:30:15.691Z,58.98
2023-02-14T08:32:52.365Z,60.32
2023-02-14T08:35:18.906Z,58.87
2023-02-14T08:37:45.379Z,60.06
2023-02-14T08:40:12.345Z,59.37
2023-02-14T08:42:38.869Z,61.22
2023-02-14T08:45:06.160Z,58.49
2023-02-14T08:47:33.300Z,56.90
2023-02-14T08:49:59.829Z,57.30
2023-02-14T08:52:26.338Z,53.59
2023-02-14T08:54:52.824Z,51.78
2023-02-14T08:57:19.346Z,54.18
2023-02-14T08:59:45.887Z,51.29
2023-02-14T09:02:13.377Z,52.84
2023-02-14T09:04:40.100Z,53.04
2023-02-14T09:07:06.622Z,54.00
2023-02-14T09:09:33.190Z,59.18
2023-02-14T09:12:04.450Z,53.49
2023-02-14T09:14:38.121Z,53.32
2023-02-14T09:17:05.616Z,53.97
2023-02-14T09:19:33.337Z,52.64
2023-02-14T09:22:00.357Z,53.41
2023-02-14T09:24:26.847Z,53.15
2023-02-14T09:26:54.018Z,53.92
2023-02-14T09:29:20.503Z,55.72
2023-02-14T09:31:47.066Z,58.59
2023-02-14T09:34:13.708Z,58.41
2023-02-14T09:36:40.216Z,55.42
2023-02-14T09:39:06.832Z,54.98
2023-02-14T09:42:14.806Z,53.92
2023-02-14T09:45:04.483Z,53.91
2023-02-14T09:47:41.972Z,54.69
2023-02-14T09:50:43.999Z,53.71
2023-02-14T09:53:36.496Z,53.13
2023-02-14T09:56:25.551Z,51.95
2023-02-14T09:59:11.793Z,53.97
2023-02-14T10:01:51.053Z,53.83
2023-02-14T10:04:40.382Z,55.48
2023-02-14T10:07:12.991Z,55.10
2023-02-14T10:10:00.347Z,54.84
2023-02-14T10:12:39.012Z,54.65
2023-02-14T10:15:21.755Z,55.69
2023-02-14T10:18:10.256Z,53.32
2023-02-14T10:20:55.271Z,51.20
2023-02-14T10:23:33.300Z,50.52
2023-02-14T10:26:25.863Z,51.54
2023-02-14T10:28:52.416Z,54.37
2023-02-14T10:31:19.001Z,55.35
2023-02-14T10:33:51.260Z,54.94
2023-02-14T10:37:07.473Z,55.75
2023-02-14T10:40:01.929Z,54.62
2023-02-14T10:42:44.095Z,53.63
2023-02-14T10:45:33.538Z,52.44
2023-02-14T10:48:35.003Z,51.52
2023-02-14T10:51:25.101Z,49.82
2023-02-14T10:54:16.531Z,48.64
2023-02-14T10:56:52.062Z,48.98
2023-02-14T10:59:35.410Z,50.06
2023-02-14T11:02:02.218Z,50.83
2023-02-14T11:04:31.760Z,51.40
2023-02-14T11:06:58.321Z,51.73
2023-02-14T11:09:24.911Z,51.37
2023-02-14T11:11:58.931Z,50.97
2023-02-14T11:14:28.019Z,50.35
2023-02-14T11:16:55.462Z,49.93
2023-02-14T11:19:29.338Z,50.55
2023-02-14T11:21:59.334Z,53.41
2023-02-14T11:24:30.235Z,53.04
2023-02-14T11:27:02.387Z,53.30
2023-02-14T11:29:35.108Z,52.03
2023-02-14T11:32:12.724Z,53.28
2023-02-14T11:34:54.043Z,53.42
2023-02-14T11:37:23.265Z,55.45
2023-02-14T11:39:52.122Z,56.99
2023-02-14T11:42:37.022Z,57.34
2023-02-14T11:45:05.702Z,57.97
2023-02-14T11:47:36.465Z,55.64
2023-02-14T11:50:07.311Z,56.25
2023-02-14T11:52:45.633Z,55.41
2023-02-14T11:55:27.030Z,57.15
2023-02-14T11:57:55.333Z,56.87
2023-02-14T12:00:22.906Z,56.20
2023-02-14T12:02:54.214Z,56.93
2023-02-14T12:05:30.997Z,57.29
2023-02-14T12:08:02.435Z,56.60
2023-02-14T12:10:34.581Z,57.02
2023-02-14T12:13:09.734Z,56.77
2023-02-14T12:15:40.133Z,55.99
2023-02-14T12:18:47.023Z,53.63
2023-02-14T12:21:39.546Z,54.35
2023-02-14T12:24:23.660Z,52.39
2023-02-14T12:27:00.333Z,53.91
2023-02-14T12:29:54.200Z,52.08
2023-02-14T12:32:25.353Z,51.27
2023-02-14T12:35:17.176Z,51.32
2023-02-14T12:38:08.446Z,49.94
2023-02-14T12:40:47.028Z,51.95
2023-02-14T12:43:27.255Z,50.50
2023-02-14T12:46:12.980Z,50.05
2023-02-14T12:49:13.344Z,50.52
2023-02-14T12:51:58.762Z,50.37
2023-02-14T12:55:05.039Z,52.45
2023-02-14T12:58:13.326Z,52.40
2023-02-14T13:01:10.353Z,53.23
2023-02-14T13:03:36.860Z,53.31
2023-02-14T13:06:08.747Z,52.06
2023-02-14T13:08:47.625Z,51.33
2023-02-14T13:11:23.700Z,50.66
2023-02-14T13:14:15.240Z,50.95
2023-02-14T13:17:03.365Z,46.10
2023-02-14T13:19:51.551Z,45.32
2023-02-14T13:22:23.699Z,43.79
2023-02-14T13:25:35.170Z,42.91
2023-02-14T13:28:06.947Z,43.55
2023-02-14T13:30:35.904Z,43.39
2023-02-14T13:33:08.205Z,43.91
2023-02-14T13:35:35.729Z,41.94
2023-02-14T13:38:08.261Z,42.45
2023-02-14T13:40:36.326Z,40.70
2023-02-14T13:43:03.646Z,37.73
2023-02-14T13:45:30.581Z,35.87
2023-02-14T13:48:18.258Z,35.94
2023-02-14T13:51:04.308Z,36.11
2023-02-14T13:53:39.060Z,36.77
2023-02-14T13:56:32.405Z,36.34
2023-02-14T13:59:03.553Z,36.79
2023-02-14T14:01:32.932Z,36.44
2023-02-14T14:04:03.658Z,37.79
2023-02-14T14:06:55.090Z,38.12
2023-02-14T14:09:41.746Z,37.42
2023-02-14T14:12:26.471Z,38.03
2023-02-14T14:15:05.158Z,36.78
2023-02-14T14:17:37.350Z,37.65
2023-02-14T14:20:26.741Z,39.37
2023-02-14T14:22:59.772Z,40.02
2023-02-14T14:25:37.396Z,38.88
2023-02-14T14:28:11.231Z,37.24
2023-02-14T14:30:44.430Z,37.94
2023-02-14T14:33:33.363Z,38.32
2023-02-14T14:36:06.703Z,38.27
2023-02-14T14:38:47.103Z,38.81
2023-02-14T14:41:13.848Z,37.92
2023-02-14T14:43:41.381Z,36.47
2023-02-14T14:46:12.490Z,37.46
2023-02-14T14:48:40.794Z,38.64
2023-02-14T14:51:17.802Z,38.66
2023-02-14T14:53:52.463Z,37.25
2023-02-14T14:56:58.863Z,37.68
2023-02-14T14:59:25.309Z,36.93
2023-02-14T15:01:51.914Z,36.83
2023-02-14T15:04:26.565Z,37.00
2023-02-14T15:06:56.558Z,35.88
2023-02-14T15:09:31.080Z,36.30
2023-02-14T15:12:01.786Z,36.30
2023-02-14T15:14:33.827Z,35.72
2023-02-14T15:17:03.961Z,34.73
2023-02-14T15:19:44.516Z,34.57
2023-02-14T15:22:41.861Z,33.72
2023-02-14T15:25:16.977Z,33.33
2023-02-14T15:27:43.929Z,34.56
2023-02-14T15:30:19.892Z,33.27
2023-02-14T15:32:49.070Z,34.53
2023-02-14T15:35:18.591Z,34.32
2023-02-14T15:37:47.130Z,34.67
2023-02-14T15:40:27.125Z,33.34
2023-02-14T15:42:54.713Z,32.31
2023-02-14T15:45:23.265Z,31.94
2023-02-14T15:47:53.826Z,32.35
2023-02-14T15:50:26.902Z,32.93
2023-02-14T15:53:20.075Z,33.00
2023-02-14T15:55:48.619Z,33.17
2023-02-14T15:58:23.836Z,33.66
2023-02-14T16:00:53.244Z,33.50
2023-02-14T16:03:23.828Z,33.10
2023-02-14T16:05:51.257Z,30.05
2023-02-14T16:08:23.407Z,30.49
2023-02-14T16:11:02.275Z,33.02
2023-02-14T16:13:34.967Z,32.79
2023-02-14T16:16:15.701Z,31.81
2023-02-14T16:18:47.992Z,29.29
2023-02-14T16:21:18.309Z,25.22
2023-02-14T16:23:50.250Z,24.78
2023-02-14T16:26:16.804Z,25.24
2023-02-14T16:28:43.549Z,25.92
2023-02-14T16:31:16.757Z,24.36
2023-02-14T16:33:43.372Z,25.56
2023-02-14T16:36:31.160Z,27.55
2023-02-14T16:39:01.956Z,29.16
2023-02-14T16:41:29.981Z,28.93
2023-02-14T16:43:56.866Z,29.45
2023-02-14T16:46:28.432Z,29.92
2023-02-14T16:48:55.505Z,30.56
2023-02-14T16:51:26.904Z,30.77
2023-02-14T16:53:57.206Z,32.87
2023-02-14T16:56:33.479Z,32.65
2023-02-14T16:59:00.284Z,31.30
2023-02-14T17:01:26.821Z,33.46
2023-02-14T17:03:53.336Z,31.31
2023-02-14T17:06:24.479Z,28.48
2023-02-14T17:08:53.031Z,27.59
2023-02-14T17:11:24.952Z,28.12
2023-02-14T17:13:54.501Z,28.44
2023-02-14T17:16:23.422Z,28.32
2023-02-14T17:18:52.201Z,28.54
2023-02-14T17:21:23.716Z,28.57
2023-02-14T17:23:50.648Z,28.36
2023-02-14T17:26:17.134Z,28.94
2023-02-14T17:28:44.003Z,30.97
2023-02-14T17:31:10.555Z,31.25
2023-02-14T17:33:37.118Z,31.80
2023-02-14T17:36:11.793Z,30.80
2023-02-14T17:38:38.973Z,31.30
2023-02-14T17:41:23.982Z,31.98
2023-02-14T17:43:52.991Z,32.90
2023-02-14T17:46:19.634Z,31.67
2023-02-14T17:48:47.741Z,32.29
2023-02-14T17:51:16.691Z,32.26
2023-02-14T17:53:43.366Z,32.86
2023-02-14T17:56:13.934Z,33.03
2023-02-14T17:58:40.789Z,33.10
2023-02-14T18:01:10.318Z,33.62
2023-02-14T18:03:38.617Z,33.61
2023-02-14T18:06:06.581Z,34.17
2023-02-14T18:08:36.098Z,34.92
2023-02-14T18:11:06.591Z,35.86
2023-02-14T18:13:34.211Z,35.98
2023-02-14T18:16:10.036Z,35.79
2023-02-14T18:18:37.040Z,36.83
2023-02-14T18:21:05.420Z,36.52
2023-02-14T18:23:34.537Z,36.90
2023-02-14T18:26:05.242Z,36.21
2023-02-14T18:28:33.057Z,36.74
2023-02-14T18:31:08.436Z,37.21
2023-02-14T18:33:35.618Z,37.39
2023-02-14T18:36:08.496Z,36.99
2023-02-14T18:38:35.534Z,36.94
2023-02-14T18:41:06.659Z,37.09
2023-02-14T18:43:33.224Z,37.53
2023-02-14T18:46:05.292Z,35.89
2023-02-14T18:48:32.199Z,35.74
2023-02-14T18:51:12.804Z,34.66
2023-02-14T18:53:40.683Z,35.47
2023-02-14T18:56:10.373Z,35.09
2023-02-14T18:58:36.895Z,35.42
2023-02-14T19:01:18.743Z,35.33
2023-02-14T19:03:45.372Z,35.51
2023-02-14T19:06:13.105Z,34.59
2023-02-14T19:08:40.801Z,34.85
2023-02-14T19:11:15.561Z,35.40
2023-02-14T19:13:47.604Z,35.19
2023-02-14T19:16:18.053Z,34.23
2023-02-14T19:18:45.148Z,34.89
2023-02-14T19:21:19.231Z,34.98
2023-02-14T19:23:46.254Z,34.10
2023-02-14T19:26:16.667Z,33.76
2023-02-14T19:28:45.258Z,33.57
2023-02-14T19:31:13.584Z,34.22
2023-02-14T19:33:44.919Z,34.17
2023-02-14T19:36:13.953Z,34.12
2023-02-14T19:38:47.873Z,33.39
2023-02-14T19:41:26.508Z,33.34
2023-02-14T19:43:56.320Z,34.21
2023-02-14T19:46:23.073Z,35.64
2023-02-14T19:48:49.975Z,34.99
2023-02-14T19:51:20.481Z,34.85
2023-02-14T19:53:47.482Z,33.18
2023-02-14T19:56:19.338Z,33.65
2023-02-14T19:58:45.984Z,32.19
2023-02-14T20:01:42.231Z,32.13
2023-02-14T20:04:11.929Z,32.09
2023-02-14T20:06:38.428Z,32.61
2023-02-14T20:09:06.347Z,31.48
2023-02-14T20:11:41.335Z,32.10
2023-02-14T20:14:08.897Z,32.58
2023-02-14T20:16:37.094Z,31.60
2023-02-14T20:19:09.766Z,31.88
2023-02-14T20:21:36.246Z,32.03
2023-02-14T20:24:04.194Z,32.72
2023-02-14T20:26:33.468Z,32.92
2023-02-14T20:29:02.757Z,32.69
2023-02-14T20:31:31.227Z,31.32
2023-02-14T20:33:57.793Z,30.64
2023-02-14T20:36:25.385Z,31.00
2023-02-14T20:39:00.501Z,29.80
2023-02-14T20:41:27.901Z,30.45
2023-02-14T20:43:55.500Z,30.81
2023-02-14T20:46:22.876Z,30.73
2023-02-14T20:48:49.460Z,29.56
2023-02-14T20:51:18.489Z,29.87
2023-02-14T20:53:45.908Z,29.36
2023-02-14T20:56:14.414Z,29.00
2023-02-14T20:58:41.491Z,29.44
2023-02-14T21:01:19.691Z,28.77
2023-02-14T21:03:48.794Z,28.85
2023-02-14T21:06:15.481Z,28.08
2023-02-14T21:08:42.770Z,27.93
2023-02-14T21:11:11.784Z,26.93
2023-02-14T21:13:38.620Z,27.66
2023-02-14T21:16:07.645Z,26.48
2023-02-14T21:18:35.765Z,26.69
2023-02-14T21:21:07.615Z,26.75
2023-02-14T21:23:34.743Z,27.21
2023-02-14T21:26:01.268Z,26.68
2023-02-14T21:28:31.293Z,26.73
2023-02-14T21:31:05.701Z,26.56
2023-02-14T21:33:32.607Z,26.03
2023-02-14T21:36:16.048Z,26.72
2023-02-14T21:38:43.438Z,27.01
2023-02-14T21:41:19.131Z,27.75
2023-02-14T21:43:48.573Z,27.18
2023-02-14T21:46:18.009Z,27.43
2023-02-14T21:48:45.078Z,27.26
2023-02-14T21:51:11.741Z,27.65
2023-02-14T21:53:38.445Z,28.49
2023-02-14T21:56:06.406Z,28.66
2023-02-14T21:58:32.877Z,28.80
2023-02-14T22:00:59.634Z,28.14
2023-02-14T22:03:26.255Z,28.86
2023-02-14T22:06:01.764Z,28.40
2023-02-14T22:08:28.627Z,29.30
2023-02-14T22:10:55.318Z,28.83
2023-02-14T22:13:22.395Z,28.62
2023-02-14T22:15:48.950Z,29.14
2023-02-14T22:18:16.351Z,28.53
2023-02-14T22:20:43.265Z,27.77
2023-02-14T22:23:09.858Z,28.43
2023-02-14T22:25:36.355Z,28.49
2023-02-14T22:28:02.852Z,28.25
2023-02-14T22:30:29.353Z,28.22
2023-02-14T22:32:55.918Z,27.40
2023-02-14T22:35:22.382Z,27.30
2023-02-14T22:37:48.834Z,26.81
2023-02-14T22:40:15.344Z,27.10
2023-02-14T22:42:41.813Z,26.77
2023-02-14T22:45:08.705Z,26.60
2023-02-14T22:47:35.263Z,26.19
2023-02-14T22:50:01.748Z,25.24
2023-02-14T22:52:28.525Z,25.15
2023-02-14T22:54:54.988Z,24.64
2023-02-14T22:57:21.473Z,24.89
2023-02-14T22:59:47.977Z,25.20
2023-02-14T23:02:14.443Z,24.36
2023-02-14T23:04:40.940Z,23.39
2023-02-14T23:07:10.493Z,22.48
2023-02-14T23:09:36.950Z,21.91
2023-02-14T23:12:03.651Z,22.05
2023-02-14T23:14:30.122Z,21.01
2023-02-14T23:16:56.933Z,21.24
2023-02-14T23:19:26.346Z,20.25
2023-02-14T23:21:52.798Z,20.06
2023-02-14T23:24:19.289Z,19.84
2023-02-14T23:26:46.057Z,19.26
2023-02-14T23:29:12.737Z,19.30
2023-02-14T23:31:39.437Z,18.80
2023-02-14T23:34:05.967Z,18.72
2023-02-14T23:36:32.417Z,18.63
2023-02-14T23:38:58.868Z,18.22
2023-02-14T23:41:25.342Z,18.01
2023-02-14T23:43:55.009Z,17.69
2023-02-14T23:46:21.540Z,17.24
2023-02-14T23:48:48.054Z,16.85
2023-02-14T23:51:14.536Z,16.95
2023-02-14T23:53:41.007Z,16.56
2023-02-14T23:56:07.521Z,16.67
2023-02-14T23:58:34.003Z,15.90
